Gillette, WY

1:57 AM MDT on July 14, 2014 (GMT -0600)
Johnson County (KBYG) Elev 4967 ft | 44.38 °N, 106.72 °W | Change Station

Current weather conditions updated 4 minutes ago

Clear
Clear
58 °F
Feels Like 58 °F
N
8
Wind Variable Wind from WNW

Today is forecast to be Much Cooler than yesterday.

Today
High -- | Low -- °F
--% Chance of Precip.
Yesterday
High -- | Low -- °F
Precip. -- in
5:31 AM 8:45 PM
Waning Gibbous, 95% visible
Pressure 30.18 in
Visibility 10.0 miles
Clouds Clear
Dew Point 45 °F
Humidity 62%
Rainfall 0.00 in
Snow Depth Not available.
UV 0 out of 12
Pollen 4.80 out of 12
Air Quality Not available.
Flu Activity Sporadic
METAR KBYG 140753Z AUTO 29007KT 10SM CLR 14/07 A3034 RMK AO2 SLP218 T01440072

More Conditions Fewer Conditions

Pressure 30.18 in
Visibility 10.0 miles
Clouds Clear
Dew Point 45 °F
Humidity 62%
Rainfall 0.00 in
Snow Depth Not available.
UV 0 out of 12
Pollen 4.80 out of 12
Air Quality Not available.
Flu Activity Sporadic
METAR KBYG 140753Z AUTO 29007KT 10SM CLR 14/07 A3034 RMK AO2 SLP218 T01440072

More Conditions Fewer Conditions

10-Day Weather Forecast

Almanac

Astronomy

Jul. 14, 2014 Rise Set
Actual Time 5:31 AM MDT 8:45 PM MDT
Civil Twilight 4:55 AM MDT 9:21 PM MDT
Nautical Twilight 4:09 AM MDT 10:07 PM MDT
Astronomical Twilight 3:12 AM MDT 11:03 PM MDT
Moon 10:07 PM MDT 8:25 AM MDT
Length of Visible Light 16h 25m
Length of Day
15h 14m
Tomorrow will be 1m 35s shorter.
Waning Gibbous, 95% of the Moon is Illuminated
Today
Waning Gibbous
Jul 18
Last Quarter
Jul 26
New
Aug 3
First Quarter
Aug 10
Full

Today's Extremes

State Highs State Lows

Community

WunderPhotos

Upload Photos

1,733,572 photos uploaded!

Nearby

Snow Depth

Station Depth Elevation
Casper Mountain 0 in 7850 ft
Reno Hill 0 in 8500 ft
Townsend Creek 0 in 8700 ft
Sand Lake 0 in 10050 ft
Brooklyn Lake 0 in 10220 ft

Earthquake Activity

City Distance Mag. Time & Date
No recent earthquake activity has been reported nearby.
Minimum magnitude displayed is 2.5.

Coastal Water Temperatures

Place Temperature
No Stations Reporting

Nearby Weather Stations

Station Location Temp. Dew Point Humidity Wind Precip. Elev Updated Type
RAWS ECHETA WY, Gillette, WY 63 °F 46 °F 53% North  at  0 mph 0.00 in / hr 4396 ft 12:51 AM MDT MADIS
(North Gillette), Gillette, WY 57.0 °F 46 °F 66% NE  at  0.0 mph 0.00 in / hr 4610 ft 1:57 AM MDT Rapid Fire

Show More Stations Show Fewer Stations